India Meteorological Department
Airport METARs
Date : 19-06-2018
Sl. # Airport METAR
1 Agartala VEAT 191400Z 00000KT 5000 BR FEW020 SCT100 27/26 Q1001 NOSIG=
2 Ahmedabad VAAH 191400Z 21009KT 5000 FU NSC 38/25 Q0999 NOSIG=
3 Allahabad VEAB 191230Z 30004KT 6000 SCT025 40/16 Q998 NOSIG=
4 Amritsar VIAR 191400Z VRB00KT 6000 NSC 35/18 Q0999 BECMG 5000 HZ=
5 Bangalore VOBL 191400Z 24014KT 8000 SCT012 SCT020 24/21 Q1011 NOSIG=
6 Baroda VABO 191400Z 22010KT 6000 NSC 35/23 Q0999 NOSIG=
7 Bhaunagar VABV 191230Z 18018KT 6000 FEW025 36/24 Q0999=
8 Bhopal VABP 191400Z 22010KT 6000 SCT025 BKN100 29/21 Q1003 NOSIG=
9 Bhubaneswar VEBS 191400Z 22010KT 5000 HZ FEW020 SCT100 27/26 Q1000 NOSIG=
10 Chennai VOMM 191400Z 17013KT 6000 FEW020 32/26 Q1004 NOSIG=
11 Coimbatore VOCB 191400Z 21015KT 6000 SCT015 BKN080 25/21 Q1010 TEMPO 5000 -RA DZ=
12 Colombo VCBI 191410Z 22014KT 9999 SCT016 27/24 Q1010 NOSIG=
13 Delhi VIDP 191400Z 020008KT 4000 HZ NSC 37/17 Q0999 NOSIG=
14 Dehradun VIDN 191400Z 36003KT 3000 HZ FEW030 29/21 Q1000 =
15 Gauhati VEGT 191400Z 00000KT 3000 BR SCT018 FEW025CB BKN100 31/28 Q1000 NOSIG=
16 Gaya VEGY 191400Z 08011KT 3500 HZ SCT018 BKN100 36/21 Q0998 =
17 Hyderabad VOHS 191400Z 23005KT 6000 SCT015 31/21 Q1006 NOSIG=
18 Indore VAID 191400Z 12018KT 1200 +TSRA FEW008 SCT020 FEWCB030 BKN100 25/23 Q1006 NOSIG=
19 Jabalpur VAJB 191230Z 05010G20KT 6000 SCT025 BKN100 36/18 Q1002=
20 Jaipur VIJP 191400Z 28010KT 2000 HZ SCT030 SCT100 30/20 Q1002 NOSIG=
21 Kochi VOCI 191400Z 15002KT 3000 -TSRA FEW008 SCT012 FEW025CB OVC080 25/25 Q1009 NOSIG=
22 Kolkata VECC 191400Z 14006KT 3200 HZ SCT020 SCT100 30/25 Q0999 NOSIG=
23 Kozhikode VOCL 191400Z 08005KT 3000 RA SCT004 SCT012 FEW025CB OVC080 25/22 Q1008 NOSIG=
24 Lucknow VILK 191400Z 00000KT 3000 HZ NSC 36/20 Q0997 NOSIG=
25 Madurai VOMD 191400Z 28012G22KT 6000 FEW018 32/22 Q1007 NOSIG=
26 Mumbai VABB 191400Z 27007KT 3000 HZ FEW020 SCT025 BKN100 30/26 Q1003 NOSIG=
27 Nagpur VANP 191330Z 00000KT 5000 HZ FEW020 BKN100 30/23 Q1002 NOSIG=
28 Patna VEPT 191400Z 16007KT 3500 HZ SCT020 BKN100 32/26 Q0997 NOSIG=
29 Raipur VERP 191400Z 24007KT 6000 FEW025 FEW030CB 35/24 Q1001 NOSIG=
30 Safdarjung VIDD 191300Z 02006KT 4000 HZ NSC 39/21 Q0997 NOSIG=
31 Surat VASU 191400Z 22008KT 6000 NSC 32/26 Q1001=
32 Ranchi VERC 191400Z 16002KT 4000 HZ SCT020 BKN100 27/23 Q1004 NOSIG=
33 Trichy VOTR 191400Z 29010KT 6000 FEW016 FEW025CB SCT100 32/21 Q1005 NOSIG=
34 Trivandrum VOTV 191400Z 34002KT 3000 HZ SCT012 FEW025CB BKN080 26/24 Q1009 NOSIG=
35 Udaipur VAUD 191400Z VRB03KT 3000 HZ FEW030 33/19 Q1002 NOSIG=
36 Varanasi VEBN 191400Z 30002KT 3500 HZ NSC 38/23 Q0996 NOSIG=
37 Vizag VOVZ 191400Z 33004KT 6000 FEW018 30/23 Q1001 NOSIG =
38 Male VRMM 191400Z 23006KT 9999 FEW020 SCT280 29/24 Q1010 NOSIG=
39 Gan VRMG 191300Z 17011KT 9999 FEW018TCU SCT260 29/24 Q1009 NOSIG=
40 Kathmandu VNKT 191420Z 25004KT 8000 FEW020 25/18 Q1009 NOSIG=
41 Dhaka VGHS 191400Z 15005KT 3500 HZ FEW015 SCT100 27/25 Q1001 NOSIG=
42 Colombo VCBI 191410Z 22014KT 9999 SCT016 27/24 Q1010 NOSIG=
43 Karachi OPKC 191354Z 22010KT 6000 SCT020 31/24 Q1000 NOSIG=
44 Lahore OPLA 191355Z 28007KT 6000 NSC 36/21 Q0999 A29.49 BECMG 5000 HZ=
45 Leh VILH 191230Z 27012G22KT 6000 SOCC SCT060 SCT070 BKN100 22/M04 Q1016 NOSIG RMK AC =
46 Sri Nagar VISR 191330Z 27005KT 6000 FEW025 FEW030TCU SCT080 23/13 Q1012 NOSIG=
47 Jammu VIJU 191330Z 24004KT 6000 FEW030 36/16 Q0998 NOSIG=
48 Bhuj-Rudra VABJ 191330Z 22010KT 6000 SKC 34/24 Q1001 NOSIG=
49 Gorakhpur VEGK 191230Z 29004KT 6000 SKC 39/19 Q0996 NOSIG=
50 Bagdogra VEBD 191230Z 05006KT SCT025 FEW030TCU BKN250 31/28 Q999 NOSIG=
51 Pune VAPO 191330Z 25012KT 6000 -RA SCT020 SCT030 FEW030CB BKN080 27/23 Q1007 TEMPO -TSRA=

 

--- End of List ---